Time;durP1;ratioP1;P1;durP2;ratioP2;P2;SDS_P1;SDS_P2;PMS_P1;PMS_P2;Temp;Humidity;BMP_temperature;BMP_pressure;BME280_temperature;BME280_humidity;BME280_pressure;Samples;Min_cycle;Max_cycle;Signal;HPM_P1;HPM_P2
2021/12/08 00:00:10;;;;;;;17.10;10.03;;;0.80;99.90;;;;;;5075504;28;20329;-42
2021/12/08 00:02:36;;;;;;;16.27;10.70;;;0.90;99.90;;;;;;5094528;28;20195;-41
2021/12/08 00:05:04;;;;;;;19.17;10.57;;;0.90;99.90;;;;;;5094070;28;20253;-43
2021/12/08 00:07:30;;;;;;;19.93;12.23;;;0.90;99.90;;;;;;5059100;28;20190;-42
2021/12/08 00:15:26;;;;;;;16.93;9.77;;;0.90;99.90;;;;;;5075682;28;20190;-41
2021/12/08 00:17:52;;;;;;;16.83;10.30;;;0.90;99.90;;;;;;5058852;28;20215;-40
2021/12/08 00:20:18;;;;;;;15.20;9.30;;;0.90;99.90;;;;;;5058618;28;20215;-42
2021/12/08 00:22:44;;;;;;;16.60;9.53;;;0.90;99.90;;;;;;5058658;28;20188;-40
2021/12/08 00:25:10;;;;;;;14.60;9.47;;;0.90;99.90;;;;;;5058673;28;20208;-41
2021/12/08 00:27:36;;;;;;;13.97;8.67;;;1.00;99.90;;;;;;5093512;28;20172;-40
2021/12/08 00:30:02;;;;;;;15.23;9.47;;;1.00;99.90;;;;;;5075044;28;20203;-41
2021/12/08 00:32:31;;;;;;;15.03;9.87;;;1.00;99.90;;;;;;5075161;28;20277;-40
2021/12/08 00:34:57;;;;;;;18.13;10.17;;;1.00;99.90;;;;;;5075137;28;20180;-41
2021/12/08 00:37:23;;;;;;;15.87;10.23;;;0.90;99.90;;;;;;5052835;28;20192;-42
2021/12/08 00:39:52;;;;;;;13.70;9.27;;;0.90;99.90;;;;;;5071274;28;20215;-41
2021/12/08 00:42:19;;;;;;;15.37;9.50;;;0.90;99.90;;;;;;5070850;28;20188;-40
2021/12/08 00:44:46;;;;;;;18.60;9.27;;;1.00;99.90;;;;;;5054948;28;20191;-39
2021/12/08 00:47:12;;;;;;;15.97;9.13;;;1.00;99.90;;;;;;5057181;28;20176;-38
2021/12/08 00:49:39;;;;;;;16.57;9.40;;;0.90;99.90;;;;;;5057873;28;20226;-41
2021/12/08 00:52:06;;;;;;;15.67;9.40;;;1.00;99.90;;;;;;5074378;28;20270;-38
2021/12/08 00:54:32;;;;;;;13.03;8.77;;;1.00;99.90;;;;;;5058069;28;20187;-39
2021/12/08 00:56:59;;;;;;;11.60;8.40;;;1.00;99.90;;;;;;5090693;28;20249;-40
2021/12/08 00:59:25;;;;;;;12.20;8.47;;;1.00;99.90;;;;;;5054442;28;20224;-38
2021/12/08 01:01:51;;;;;;;14.03;8.97;;;1.10;99.90;;;;;;5081191;28;20252;-41
2021/12/08 01:04:17;;;;;;;13.70;8.40;;;1.10;99.90;;;;;;5074349;28;20184;-39
2021/12/08 01:06:43;;;;;;;15.30;8.50;;;1.00;99.90;;;;;;5058187;28;20190;-35
2021/12/08 01:09:12;;;;;;;13.13;8.70;;;0.90;99.90;;;;;;5091636;28;20184;-39
2021/12/08 01:11:38;;;;;;;12.83;8.50;;;0.90;99.90;;;;;;5074435;28;20240;-40
2021/12/08 01:14:05;;;;;;;11.50;8.20;;;0.90;99.90;;;;;;5074363;28;20232;-39
2021/12/08 01:16:32;;;;;;;14.07;8.53;;;1.00;99.90;;;;;;5092409;28;20233;-38
2021/12/08 01:18:58;;;;;;;10.67;8.23;;;1.00;99.90;;;;;;5070155;28;20215;-41
2021/12/08 01:21:24;;;;;;;14.80;8.83;;;1.00;99.90;;;;;;5055814;28;20185;-39
2021/12/08 01:23:50;;;;;;;12.60;8.50;;;1.10;99.90;;;;;;5071164;28;20191;-39
2021/12/08 01:26:16;;;;;;;14.20;8.70;;;1.10;99.90;;;;;;5070880;28;20716;-39
2021/12/08 01:28:44;;;;;;;13.33;9.10;;;1.20;99.90;;;;;;5053943;28;20207;-38
2021/12/08 01:31:09;;;;;;;11.50;8.77;;;1.20;99.90;;;;;;5058348;28;20218;-39
2021/12/08 01:33:36;;;;;;;12.50;9.10;;;1.20;99.90;;;;;;5037722;28;20183;-36
2021/12/08 01:36:05;;;;;;;11.73;8.67;;;1.30;99.90;;;;;;5070949;28;20185;-38
2021/12/08 01:38:32;;;;;;;13.17;8.97;;;1.30;99.90;;;;;;5053770;28;20215;-38
2021/12/08 01:40:58;;;;;;;16.60;8.90;;;1.30;99.90;;;;;;5054242;28;20209;-40
2021/12/08 01:43:27;;;;;;;13.10;9.00;;;1.30;99.90;;;;;;5053905;28;20203;-41
2021/12/08 01:46:05;;;;;;;13.53;8.37;;;1.30;99.90;;;;;;5053718;28;20188;-39
2021/12/08 01:48:34;;;;;;;11.53;8.80;;;1.40;99.90;;;;;;5053461;28;20184;-40
2021/12/08 01:51:06;;;;;;;12.67;8.93;;;1.40;99.90;;;;;;5066657;28;20750;-39
2021/12/08 01:53:32;;;;;;;12.17;7.97;;;1.40;99.90;;;;;;5056903;28;20262;-40
2021/12/08 01:55:59;;;;;;;11.97;8.43;;;1.40;99.90;;;;;;5090616;28;20187;-38
2021/12/08 01:58:25;;;;;;;11.23;8.43;;;1.40;99.90;;;;;;5056120;28;20204;-38
2021/12/08 02:01:01;;;;;;;11.20;8.90;;;1.40;99.90;;;;;;5055080;28;20197;-38
2021/12/08 02:03:28;;;;;;;12.80;9.10;;;1.50;99.90;;;;;;5057066;28;20206;-38
2021/12/08 02:05:55;;;;;;;12.40;8.43;;;1.50;99.90;;;;;;5073767;28;20255;-40
2021/12/08 02:08:22;;;;;;;14.10;8.80;;;1.50;99.90;;;;;;5072706;28;20254;-40
2021/12/08 02:10:48;;;;;;;12.83;8.40;;;1.50;99.90;;;;;;5091179;28;20196;-41
2021/12/08 02:13:15;;;;;;;11.23;8.20;;;1.50;99.90;;;;;;5090260;28;20249;-40
2021/12/08 02:15:41;;;;;;;14.67;8.03;;;1.50;99.90;;;;;;5056867;28;20188;-39
2021/12/08 02:18:11;;;;;;;12.83;7.93;;;1.50;99.90;;;;;;5058768;28;20227;-39
2021/12/08 02:20:38;;;;;;;11.27;7.93;;;1.50;99.90;;;;;;5071246;28;20212;-40
2021/12/08 02:23:05;;;;;;;14.20;8.90;;;1.60;99.90;;;;;;5053529;28;20172;-38
2021/12/08 02:25:31;;;;;;;14.80;9.73;;;1.60;99.90;;;;;;5053121;28;20185;-34
2021/12/08 02:28:00;;;;;;;11.67;9.03;;;1.60;99.90;;;;;;5053691;28;20185;-40
2021/12/08 02:30:34;;;;;;;13.10;8.73;;;1.60;99.90;;;;;;5069623;28;20254;-39
2021/12/08 02:49:32;;;;;;;13.93;8.43;;;1.50;99.90;;;;;;5072980;28;20196;-39
2021/12/08 02:51:59;;;;;;;14.33;8.47;;;1.60;99.90;;;;;;5073346;28;20187;-37
2021/12/08 02:54:34;;;;;;;10.30;8.23;;;1.60;99.90;;;;;;5073291;28;20237;-40
2021/12/08 02:57:00;;;;;;;13.50;8.47;;;1.60;99.90;;;;;;5061955;28;20218;-37
2021/12/08 02:59:26;;;;;;;11.70;8.97;;;1.60;99.90;;;;;;5052893;28;20327;-40
2021/12/08 03:01:52;;;;;;;11.20;8.27;;;1.50;99.90;;;;;;5063140;28;20271;-40
2021/12/08 03:04:18;;;;;;;13.80;9.17;;;1.50;99.90;;;;;;5057785;28;20329;-37
2021/12/08 03:06:44;;;;;;;11.23;8.60;;;1.60;99.90;;;;;;5059529;28;20173;-40
2021/12/08 03:09:10;;;;;;;12.70;8.73;;;1.60;99.90;;;;;;5059679;28;20183;-41
2021/12/08 03:11:36;;;;;;;14.90;10.00;;;1.60;99.90;;;;;;5076500;28;20173;-38
2021/12/08 03:14:10;;;;;;;12.63;9.03;;;1.60;99.90;;;;;;5110636;28;20181;-39
2021/12/08 03:16:40;;;;;;;11.40;8.67;;;1.60;99.90;;;;;;5087863;28;20252;-37
2021/12/08 03:19:06;;;;;;;10.63;8.23;;;1.60;99.90;;;;;;5056263;28;20279;-39
2021/12/08 03:21:33;;;;;;;10.73;8.10;;;1.60;99.90;;;;;;5092364;28;20191;-38
2021/12/08 03:24:12;;;;;;;12.53;7.90;;;1.60;99.90;;;;;;5076238;28;20183;-40
2021/12/08 03:26:48;;;;;;;11.77;7.83;;;1.50;99.90;;;;;;5093431;28;20180;-38
2021/12/08 03:29:27;;;;;;;12.93;9.40;;;1.60;99.90;;;;;;5076282;28;20186;-40
2021/12/08 03:32:02;;;;;;;12.43;8.57;;;1.60;99.90;;;;;;5059574;28;20183;-41
2021/12/08 03:34:30;;;;;;;12.20;8.53;;;1.60;99.90;;;;;;5076163;28;20168;-40
2021/12/08 03:36:56;;;;;;;13.83;9.30;;;1.60;99.90;;;;;;5076343;28;20272;-42
2021/12/08 03:39:22;;;;;;;14.30;9.43;;;1.60;99.90;;;;;;5058978;28;20214;-41
2021/12/08 03:41:48;;;;;;;11.43;8.70;;;1.60;99.90;;;;;;5076858;28;20177;-36
2021/12/08 03:44:14;;;;;;;11.70;8.37;;;1.60;99.90;;;;;;5056327;28;20386;-39
2021/12/08 03:46:42;;;;;;;10.47;8.37;;;1.60;99.90;;;;;;5055966;28;20254;-40
2021/12/08 03:49:50;;;;;;;11.87;8.83;;;1.60;99.90;;;;;;5074180;28;20192;-39
2021/12/08 03:52:16;;;;;;;12.13;8.47;;;1.60;99.90;;;;;;5058016;28;20176;-39
2021/12/08 03:54:43;;;;;;;10.63;8.77;;;1.50;99.90;;;;;;5057498;28;20230;-38
2021/12/08 03:57:09;;;;;;;13.83;8.93;;;1.60;99.90;;;;;;5056924;28;20209;-42
2021/12/08 03:59:35;;;;;;;13.33;9.57;;;1.60;99.90;;;;;;5057859;28;20208;-40
2021/12/08 04:02:01;;;;;;;12.30;8.57;;;1.50;99.90;;;;;;5077288;28;20184;-39
2021/12/08 04:04:29;;;;;;;11.80;8.83;;;1.50;99.90;;;;;;5095460;28;20168;-40
2021/12/08 04:07:02;;;;;;;14.13;9.50;;;1.50;99.90;;;;;;5077564;28;20274;-40
2021/12/08 04:09:36;;;;;;;14.13;10.00;;;1.50;99.90;;;;;;5077073;28;20196;-40
2021/12/08 04:12:03;;;;;;;16.03;9.20;;;1.40;99.90;;;;;;5073643;28;20197;-39
2021/12/08 04:14:33;;;;;;;13.30;9.77;;;1.40;99.90;;;;;;5073333;28;20184;-39
2021/12/08 04:17:11;;;;;;;13.27;9.30;;;1.40;99.90;;;;;;5056773;28;20279;-40
2021/12/08 04:19:38;;;;;;;12.10;9.53;;;1.40;99.90;;;;;;5073522;28;20727;-37
2021/12/08 04:22:14;;;;;;;11.97;9.20;;;1.40;99.90;;;;;;5090595;28;20181;-39
2021/12/08 04:24:42;;;;;;;13.97;9.27;;;1.40;99.90;;;;;;5056855;28;20168;-40
2021/12/08 04:27:14;;;;;;;14.77;9.80;;;1.40;99.90;;;;;;5056740;28;20193;-40
2021/12/08 04:29:41;;;;;;;15.13;9.20;;;1.40;99.90;;;;;;5090192;28;20216;-41
2021/12/08 04:32:13;;;;;;;15.63;9.07;;;1.50;99.90;;;;;;5076159;28;20187;-40
2021/12/08 04:34:40;;;;;;;12.63;9.20;;;1.50;99.90;;;;;;5075614;28;20192;-39
2021/12/08 04:37:19;;;;;;;11.83;8.67;;;1.50;99.90;;;;;;5074434;28;20204;-40
2021/12/08 04:40:03;;;;;;;12.20;9.10;;;1.60;99.90;;;;;;5057371;28;20204;-39
2021/12/08 04:42:45;;;;;;;11.57;8.60;;;1.60;99.90;;;;;;5073325;28;20180;-39
2021/12/08 04:45:19;;;;;;;12.27;8.97;;;1.60;99.90;;;;;;5092439;28;20168;-39
2021/12/08 04:48:45;;;;;;;12.17;8.30;;;1.60;99.90;;;;;;5057770;28;20187;-40
2021/12/08 05:09:36;;;;;;;12.17;8.90;;;1.70;99.90;;;;;;5066541;28;20766;-37
2021/12/08 05:12:19;;;;;;;13.07;9.60;;;1.70;99.90;;;;;;5065618;28;20184;-39
2021/12/08 05:15:15;;;;;;;14.73;9.77;;;1.70;99.90;;;;;;5054760;28;20182;-37
2021/12/08 05:17:50;;;;;;;14.73;10.50;;;1.60;99.90;;;;;;5049318;28;20215;-36
2021/12/08 05:20:20;;;;;;;14.17;9.60;;;1.60;99.90;;;;;;5071166;28;20270;-41
2021/12/08 05:22:56;;;;;;;16.33;9.73;;;1.60;99.90;;;;;;5073661;28;20183;-39
2021/12/08 05:25:28;;;;;;;16.43;10.07;;;1.60;99.90;;;;;;5061357;28;20635;-39
2021/12/08 05:27:57;;;;;;;15.10;10.17;;;1.60;99.90;;;;;;5073826;28;20229;-41
2021/12/08 05:30:32;;;;;;;14.67;9.63;;;1.60;99.90;;;;;;5067983;28;20235;-36
2021/12/08 05:32:58;;;;;;;16.87;10.43;;;1.60;99.90;;;;;;5089173;28;20220;-42
2021/12/08 05:35:26;;;;;;;15.97;10.77;;;1.70;99.90;;;;;;5092262;28;20172;-41
2021/12/08 05:37:53;;;;;;;12.37;9.70;;;1.70;99.90;;;;;;5074932;28;20208;-37
2021/12/08 05:40:27;;;;;;;13.93;9.53;;;1.70;99.90;;;;;;5058569;28;20207;-37
2021/12/08 05:42:53;;;;;;;16.00;10.90;;;1.70;99.90;;;;;;5075837;28;20246;-35
2021/12/08 05:45:21;;;;;;;14.80;9.73;;;1.70;99.90;;;;;;5075791;28;20173;-36
2021/12/08 05:47:49;;;;;;;16.10;10.83;;;1.70;99.90;;;;;;5058761;28;20195;-38
2021/12/08 05:50:30;;;;;;;15.63;10.93;;;1.70;99.90;;;;;;5075568;28;20187;-39
2021/12/08 05:52:59;;;;;;;12.83;10.23;;;1.70;99.90;;;;;;5058914;28;20176;-39
2021/12/08 05:55:26;;;;;;;14.63;9.77;;;1.70;99.90;;;;;;5093379;28;20173;-39
2021/12/08 05:57:52;;;;;;;12.57;9.30;;;1.70;99.90;;;;;;5075617;28;20204;-39
2021/12/08 06:00:42;;;;;;;14.47;10.40;;;1.70;99.90;;;;;;5058545;28;20226;-37
2021/12/08 06:03:20;;;;;;;27.57;17.43;;;1.70;99.90;;;;;;5071959;28;20176;-39
2021/12/08 06:05:49;;;;;;;31.87;19.70;;;1.70;99.90;;;;;;5045468;28;20226;-38
2021/12/08 06:08:15;;;;;;;22.40;15.33;;;1.80;99.90;;;;;;5075407;28;20181;-38
2021/12/08 06:10:43;;;;;;;17.37;11.07;;;1.70;99.90;;;;;;5058318;28;20294;-39
2021/12/08 06:13:12;;;;;;;15.93;10.80;;;1.70;99.90;;;;;;5075232;28;20180;-39
2021/12/08 06:15:42;;;;;;;15.47;10.57;;;1.70;99.90;;;;;;5075064;28;20226;-38
2021/12/08 06:18:08;;;;;;;16.47;10.30;;;1.70;99.90;;;;;;5075105;28;20211;-38
2021/12/08 06:20:34;;;;;;;17.83;11.70;;;1.60;99.90;;;;;;5057116;28;20191;-39
2021/12/08 06:23:05;;;;;;;19.53;11.97;;;1.60;99.90;;;;;;5090026;28;20210;-36
2021/12/08 06:25:33;;;;;;;16.87;12.00;;;1.60;99.90;;;;;;5090333;28;20172;-39
2021/12/08 06:27:59;;;;;;;17.97;11.27;;;1.60;99.90;;;;;;5073676;28;20187;-39
2021/12/08 06:30:27;;;;;;;13.77;10.20;;;1.60;99.90;;;;;;5059225;28;20231;-41
2021/12/08 06:32:53;;;;;;;13.37;10.23;;;1.60;99.90;;;;;;5085429;28;20276;-37
2021/12/08 06:35:35;;;;;;;17.63;11.80;;;1.60;99.90;;;;;;5064049;28;20271;-38
2021/12/08 06:38:01;;;;;;;16.83;11.00;;;1.60;99.90;;;;;;5073152;28;20208;-43
2021/12/08 06:40:38;;;;;;;15.37;10.80;;;1.60;99.90;;;;;;5081934;28;20196;-36
2021/12/08 06:43:07;;;;;;;17.70;11.53;;;1.60;99.90;;;;;;5074078;28;20176;-38
2021/12/08 06:45:40;;;;;;;15.83;11.93;;;1.60;99.90;;;;;;5057328;28;20260;-37
2021/12/08 06:48:09;;;;;;;16.90;12.33;;;1.60;99.90;;;;;;5090699;28;20216;-41
2021/12/08 06:50:48;;;;;;;17.27;12.63;;;1.60;99.90;;;;;;5071019;28;20307;-38
2021/12/08 06:53:15;;;;;;;22.93;15.43;;;1.60;99.90;;;;;;5077498;28;20160;-39
2021/12/08 06:55:58;;;;;;;20.67;14.23;;;1.60;99.90;;;;;;5093540;28;20240;-37
2021/12/08 06:58:28;;;;;;;16.33;11.53;;;1.60;99.90;;;;;;5066499;28;20204;-39
2021/12/08 07:01:48;;;;;;;15.10;10.33;;;1.60;99.90;;;;;;5091333;28;20254;-37
2021/12/08 07:04:33;;;;;;;13.57;10.70;;;1.60;99.90;;;;;;5092218;28;20172;-38
2021/12/08 07:07:27;;;;;;;11.80;9.50;;;1.60;99.90;;;;;;5075693;28;20173;-37
2021/12/08 07:10:11;;;;;;;12.00;10.27;;;1.60;99.90;;;;;;5039031;28;20239;-39
2021/12/08 07:12:41;;;;;;;12.23;9.43;;;1.60;99.90;;;;;;5090313;28;20173;-37
2021/12/08 07:15:28;;;;;;;11.67;9.40;;;1.60;99.90;;;;;;5073638;28;20165;-37
2021/12/08 07:17:59;;;;;;;11.43;9.20;;;1.60;99.90;;;;;;5073410;28;20204;-37
2021/12/08 07:20:45;;;;;;;12.27;9.97;;;1.60;99.90;;;;;;5065874;28;20203;-43
2021/12/08 07:23:17;;;;;;;12.50;9.93;;;1.60;99.90;;;;;;5076704;28;20227;-40
2021/12/08 07:25:45;;;;;;;13.70;10.33;;;1.60;99.90;;;;;;5076382;28;20629;-38
2021/12/08 07:28:13;;;;;;;14.43;10.47;;;1.60;99.90;;;;;;5076642;28;20190;-36
2021/12/08 07:30:53;;;;;;;12.57;10.20;;;1.60;99.90;;;;;;5048677;28;20196;-38
2021/12/08 07:33:20;;;;;;;15.23;10.53;;;1.60;99.90;;;;;;5073192;28;20188;-37
2021/12/08 07:35:50;;;;;;;14.67;11.10;;;1.60;99.90;;;;;;5073080;28;20189;-37
2021/12/08 07:38:20;;;;;;;14.43;11.43;;;1.70;99.90;;;;;;5089889;28;20216;-37
2021/12/08 07:41:01;;;;;;;15.00;11.07;;;1.70;99.90;;;;;;5056248;28;20193;-37
2021/12/08 07:43:28;;;;;;;14.97;11.03;;;1.70;99.90;;;;;;5089951;28;20562;-36
2021/12/08 07:46:02;;;;;;;17.23;11.60;;;1.70;99.90;;;;;;5055976;28;20192;-38
2021/12/08 07:48:37;;;;;;;12.93;10.53;;;1.70;99.90;;;;;;5055792;28;20195;-38
2021/12/08 07:51:29;;;;;;;14.77;11.10;;;1.70;99.90;;;;;;5099309;28;20204;-38
2021/12/08 07:53:55;;;;;;;18.17;11.43;;;1.70;99.90;;;;;;5037125;28;20219;-39
2021/12/08 07:56:25;;;;;;;15.40;10.97;;;1.70;99.90;;;;;;5106583;28;20235;-41
2021/12/08 07:58:55;;;;;;;14.67;10.80;;;1.70;99.90;;;;;;5089092;28;20201;-37
2021/12/08 08:01:26;;;;;;;14.87;10.83;;;1.70;99.90;;;;;;5095042;28;20200;-40
2021/12/08 08:03:53;;;;;;;14.37;10.63;;;1.80;99.90;;;;;;5058178;28;20172;-35
2021/12/08 08:06:27;;;;;;;15.17;11.20;;;1.80;99.90;;;;;;5075669;28;20258;-39
2021/12/08 08:08:53;;;;;;;14.67;11.27;;;1.80;99.90;;;;;;5058877;28;20262;-39
2021/12/08 08:11:42;;;;;;;15.70;12.03;;;1.80;99.90;;;;;;5075598;28;20265;-39
2021/12/08 08:14:10;;;;;;;16.73;10.77;;;1.80;99.90;;;;;;5064727;28;20207;-40
2021/12/08 08:16:39;;;;;;;15.57;11.07;;;1.90;99.90;;;;;;5072716;28;20264;-39
2021/12/08 08:19:12;;;;;;;13.67;11.10;;;1.90;99.90;;;;;;5088650;28;20209;-42
2021/12/08 08:21:42;;;;;;;15.43;10.40;;;1.80;99.90;;;;;;5055752;28;20191;-39
2021/12/08 08:24:09;;;;;;;14.27;10.93;;;1.80;99.90;;;;;;5084234;28;20393;-38
2021/12/08 08:26:36;;;;;;;14.27;10.83;;;1.80;99.90;;;;;;5092353;28;20172;-39
2021/12/08 08:29:04;;;;;;;15.87;11.33;;;1.80;99.90;;;;;;5075082;28;20180;-38
2021/12/08 08:31:41;;;;;;;12.73;10.20;;;1.80;99.90;;;;;;5075352;28;20220;-39
2021/12/08 08:34:11;;;;;;;15.63;11.47;;;1.90;99.90;;;;;;5074313;28;20179;-42
2021/12/08 08:36:43;;;;;;;14.90;11.53;;;1.90;99.90;;;;;;5073107;28;20230;-36
2021/12/08 08:39:18;;;;;;;13.87;11.47;;;1.80;99.90;;;;;;5055073;28;20234;-38
2021/12/08 08:42:00;;;;;;;15.40;10.80;;;1.80;99.90;;;;;;5071161;28;20269;-39
2021/12/08 08:44:53;;;;;;;16.70;10.93;;;1.80;99.90;;;;;;5075153;28;20211;-36
2021/12/08 08:47:31;;;;;;;14.00;11.10;;;1.80;99.90;;;;;;5085081;28;20189;-38
2021/12/08 08:49:57;;;;;;;16.53;11.17;;;1.90;99.90;;;;;;5074217;28;20570;-38
2021/12/08 08:52:40;;;;;;;15.00;11.73;;;1.90;99.90;;;;;;5056740;28;20184;-37
2021/12/08 08:55:16;;;;;;;15.33;11.57;;;1.90;99.90;;;;;;5091549;28;20211;-40
2021/12/08 08:57:43;;;;;;;15.63;12.33;;;2.00;99.90;;;;;;5074965;28;20218;-38
2021/12/08 09:00:18;;;;;;;16.33;12.30;;;2.00;99.90;;;;;;5090921;28;20215;-37
2021/12/08 09:02:46;;;;;;;19.57;13.43;;;2.00;99.90;;;;;;5104870;28;20183;-37
2021/12/08 09:05:15;;;;;;;17.70;13.57;;;2.10;99.90;;;;;;5057790;28;20183;-41
2021/12/08 09:07:48;;;;;;;19.53;14.30;;;2.10;99.90;;;;;;5057907;28;20218;-37
2021/12/08 09:10:32;;;;;;;17.63;14.00;;;2.10;99.90;;;;;;5091756;28;20188;-41
2021/12/08 09:13:07;;;;;;;16.80;13.20;;;2.10;99.90;;;;;;5074674;28;20204;-38
2021/12/08 09:15:38;;;;;;;16.47;13.03;;;2.20;99.90;;;;;;5074388;28;20299;-34
2021/12/08 09:18:15;;;;;;;16.90;12.57;;;2.20;99.90;;;;;;5074221;28;20233;-39
2021/12/08 09:20:45;;;;;;;17.70;13.63;;;2.20;99.90;;;;;;5061722;28;20225;-41
2021/12/08 09:23:23;;;;;;;20.07;14.70;;;2.20;99.90;;;;;;5087837;28;20260;-38
2021/12/08 09:26:04;;;;;;;17.80;13.93;;;2.20;99.90;;;;;;5071017;28;20187;-39
2021/12/08 09:28:41;;;;;;;18.53;13.47;;;2.30;99.90;;;;;;5087290;28;20260;-45
2021/12/08 09:31:17;;;;;;;18.43;12.60;;;2.20;99.90;;;;;;5068701;28;20196;-41
2021/12/08 09:33:54;;;;;;;17.93;13.97;;;2.30;99.90;;;;;;5074266;28;20180;-38
2021/12/08 09:36:26;;;;;;;17.50;13.73;;;2.30;99.90;;;;;;5074297;28;20187;-40
2021/12/08 09:38:58;;;;;;;18.87;13.97;;;2.20;99.90;;;;;;5073490;28;20208;-40
2021/12/08 09:41:31;;;;;;;22.63;16.03;;;2.30;99.90;;;;;;5091418;28;20177;-41
2021/12/08 09:44:08;;;;;;;19.30;14.37;;;2.30;99.90;;;;;;5074133;28;20199;-39
2021/12/08 09:46:46;;;;;;;18.90;14.30;;;2.30;99.90;;;;;;5092211;28;20176;-38
2021/12/08 09:49:15;;;;;;;18.93;14.50;;;2.30;99.90;;;;;;5073489;28;20176;-40
2021/12/08 09:51:43;;;;;;;25.43;17.67;;;2.30;99.90;;;;;;5087930;28;20671;-38
2021/12/08 09:54:09;;;;;;;24.57;17.70;;;2.40;99.90;;;;;;5054085;28;20242;-39
2021/12/08 09:56:35;;;;;;;22.17;16.03;;;2.40;99.90;;;;;;5054022;28;20169;-37
2021/12/08 09:59:05;;;;;;;23.43;16.73;;;2.40;99.90;;;;;;5069662;28;20283;-36
2021/12/08 10:01:32;;;;;;;21.67;15.67;;;2.40;99.90;;;;;;5088911;28;20229;-39
2021/12/08 10:04:00;;;;;;;30.37;22.27;;;2.40;99.90;;;;;;5073583;28;20172;-38
2021/12/08 10:06:26;;;;;;;27.97;22.13;;;2.50;99.90;;;;;;5057208;28;20203;-39
2021/12/08 10:08:57;;;;;;;28.40;21.87;;;2.50;99.90;;;;;;5073656;28;20176;-39
2021/12/08 10:11:25;;;;;;;25.97;19.73;;;2.50;99.90;;;;;;5090265;28;20282;-40
2021/12/08 10:13:52;;;;;;;27.00;19.57;;;2.50;99.90;;;;;;5073746;28;20180;-39
2021/12/08 10:16:18;;;;;;;19.90;15.33;;;2.50;99.90;;;;;;5073506;28;20172;-40
2021/12/08 10:18:44;;;;;;;19.93;14.37;;;2.50;99.90;;;;;;5091596;28;20282;-38
2021/12/08 10:21:13;;;;;;;17.23;13.63;;;2.60;99.90;;;;;;5071305;28;20197;-37
2021/12/08 10:23:43;;;;;;;18.07;13.33;;;2.60;99.90;;;;;;5073552;28;20204;-39
2021/12/08 10:26:16;;;;;;;15.97;12.87;;;2.60;99.90;;;;;;5091367;28;20215;-39
2021/12/08 10:28:51;;;;;;;16.67;13.37;;;2.60;99.90;;;;;;5089949;28;20184;-38
2021/12/08 10:31:27;;;;;;;18.43;12.87;;;2.60;99.90;;;;;;5084107;28;20202;-41
2021/12/08 10:34:06;;;;;;;19.23;15.13;;;2.60;99.90;;;;;;5095772;22;20240;-32
2021/12/08 10:37:04;;;;;;;20.63;15.93;;;2.60;99.90;;;;;;5049764;28;20204;-33
2021/12/08 10:39:31;;;;;;;24.27;19.07;;;2.50;99.90;;;;;;5065948;28;20206;-32
2021/12/08 10:42:02;;;;;;;24.47;18.27;;;2.50;99.90;;;;;;5066374;28;20324;-32
2021/12/08 10:47:11;;;;;;;22.43;18.00;;;2.50;99.90;;;;;;5051315;28;20177;-32
2021/12/08 10:55:16;;;;;;;19.93;15.03;;;2.50;99.90;;;;;;5049967;28;20216;-32
2021/12/08 10:57:46;;;;;;;20.37;15.17;;;2.60;99.90;;;;;;5033484;28;20213;-36
2021/12/08 11:00:18;;;;;;;20.60;15.53;;;2.60;99.90;;;;;;5030403;28;20194;-32
2021/12/08 11:02:55;;;;;;;19.20;14.53;;;2.60;99.90;;;;;;5029609;28;20191;-32
2021/12/08 11:05:24;;;;;;;19.03;14.47;;;2.70;99.90;;;;;;5010129;28;20210;-33
2021/12/08 11:08:13;;;;;;;21.77;16.47;;;2.70;99.90;;;;;;5026651;28;20183;-35
2021/12/08 11:10:42;;;;;;;20.53;15.23;;;2.70;99.90;;;;;;5011983;28;20179;-32
2021/12/08 11:13:09;;;;;;;21.70;15.83;;;2.80;99.90;;;;;;5026594;28;20206;-32
2021/12/08 11:15:37;;;;;;;20.30;16.13;;;2.80;99.90;;;;;;5010279;28;20257;-33
2021/12/08 11:18:21;;;;;;;21.63;15.83;;;2.90;99.90;;;;;;5026421;28;20294;-33
2021/12/08 11:20:54;;;;;;;19.83;15.57;;;2.80;99.90;;;;;;5038900;28;20241;-32
2021/12/08 11:24:02;;;;;;;19.43;15.73;;;2.90;99.90;;;;;;5029610;28;20185;-32
2021/12/08 11:26:33;;;;;;;19.70;15.83;;;2.90;99.90;;;;;;5033340;28;20233;-34
2021/12/08 11:29:00;;;;;;;19.60;15.67;;;2.90;99.90;;;;;;5049742;28;20189;-32
2021/12/08 11:31:47;;;;;;;20.90;16.80;;;3.00;99.90;;;;;;5047295;28;20712;-32
2021/12/08 11:34:18;;;;;;;19.80;15.13;;;3.00;99.90;;;;;;5036480;28;20225;-32
2021/12/08 11:36:45;;;;;;;28.53;20.53;;;3.10;99.90;;;;;;5053216;28;20227;-32
2021/12/08 11:39:18;;;;;;;30.13;22.10;;;3.10;99.90;;;;;;5036117;28;20216;-32
2021/12/08 11:41:47;;;;;;;28.73;21.57;;;3.20;99.90;;;;;;5031773;28;20178;-32
2021/12/08 11:44:20;;;;;;;27.43;20.00;;;3.10;99.90;;;;;;5052901;28;20201;-32
2021/12/08 11:46:53;;;;;;;28.80;18.73;;;3.20;99.90;;;;;;5069709;28;20251;-32
2021/12/08 11:49:20;;;;;;;23.00;16.47;;;3.20;99.90;;;;;;5036040;28;20189;-32
2021/12/08 11:51:56;;;;;;;24.33;17.27;;;3.20;99.90;;;;;;5016859;28;20273;-32
2021/12/08 11:54:37;;;;;;;20.63;15.50;;;3.20;99.90;;;;;;5032700;28;20202;-31
2021/12/08 11:57:03;;;;;;;27.20;18.63;;;3.20;99.90;;;;;;5031260;28;20194;-31
2021/12/08 11:59:30;;;;;;;26.83;18.43;;;3.20;99.90;;;;;;5022275;28;20255;-33
2021/12/08 12:01:56;;;;;;;24.07;16.87;;;3.20;99.90;;;;;;5031515;28;20175;-32
2021/12/08 12:04:22;;;;;;;24.13;16.70;;;3.30;99.90;;;;;;5024008;28;20336;-33
2021/12/08 12:06:51;;;;;;;20.87;16.20;;;3.30;99.90;;;;;;5040279;28;20175;-33
2021/12/08 12:09:18;;;;;;;21.10;15.60;;;3.30;99.90;;;;;;5005005;28;20559;-33
2021/12/08 12:11:44;;;;;;;21.63;17.80;;;3.30;99.90;;;;;;5025620;28;20186;-32
2021/12/08 12:14:10;;;;;;;21.13;17.40;;;3.30;99.90;;;;;;5024066;28;20206;-35
2021/12/08 12:16:37;;;;;;;22.70;16.73;;;3.40;99.90;;;;;;5024609;28;20232;-32
2021/12/08 12:19:06;;;;;;;21.57;16.73;;;3.30;99.90;;;;;;5006995;28;20231;-32
2021/12/08 12:21:56;;;;;;;24.43;17.60;;;3.30;99.90;;;;;;5038794;28;20697;-32
2021/12/08 12:25:00;;;;;;;28.70;21.33;;;3.40;99.90;;;;;;5039439;28;20205;-32
2021/12/08 12:28:01;;;;;;;27.63;20.53;;;3.40;99.90;;;;;;5029677;28;20178;-33
2021/12/08 12:30:43;;;;;;;28.97;21.50;;;3.40;99.90;;;;;;5021099;28;20183;-32
2021/12/08 12:33:18;;;;;;;30.50;22.50;;;3.40;99.90;;;;;;5030016;28;20183;-32
2021/12/08 12:35:56;;;;;;;31.57;22.87;;;3.40;99.90;;;;;;5023535;28;20296;-32
2021/12/08 12:38:37;;;;;;;27.53;20.80;;;3.40;99.90;;;;;;5032019;28;20249;-32
2021/12/08 12:41:06;;;;;;;30.20;22.03;;;3.40;99.90;;;;;;5025318;28;20179;-34
2021/12/08 12:43:38;;;;;;;32.17;23.07;;;3.50;99.90;;;;;;5012203;28;20250;-34
2021/12/08 12:46:12;;;;;;;32.57;23.47;;;3.50;99.90;;;;;;5012127;28;20187;-33
2021/12/08 12:48:39;;;;;;;30.40;23.13;;;3.50;99.90;;;;;;5011590;28;20183;-35
2021/12/08 12:51:10;;;;;;;30.90;21.50;;;3.50;99.90;;;;;;5031471;28;20266;-32
2021/12/08 12:53:56;;;;;;;29.73;21.63;;;3.50;99.90;;;;;;5051970;28;20202;-31
2021/12/08 12:56:34;;;;;;;40.53;26.27;;;3.50;99.90;;;;;;5035025;28;20208;-33
2021/12/08 12:59:10;;;;;;;43.67;28.73;;;3.50;99.90;;;;;;5051021;28;20251;-32
2021/12/08 13:01:43;;;;;;;48.27;31.43;;;3.60;99.90;;;;;;5037882;28;20190;-32
2021/12/08 13:04:21;;;;;;;44.10;30.70;;;3.60;99.90;;;;;;5047906;28;20252;-32
2021/12/08 13:06:56;;;;;;;41.33;29.17;;;3.60;99.90;;;;;;5021516;28;20187;-32
2021/12/08 13:09:37;;;;;;;33.37;25.77;;;3.60;99.90;;;;;;5011256;28;20214;-32
2021/12/08 13:12:14;;;;;;;34.03;25.00;;;3.60;99.90;;;;;;5022723;28;20186;-32
2021/12/08 13:14:41;;;;;;;31.80;22.97;;;3.60;99.90;;;;;;5021525;28;20198;-33
2021/12/08 13:17:25;;;;;;;31.67;23.23;;;3.60;99.90;;;;;;5022076;28;20733;-33
2021/12/08 13:19:51;;;;;;;28.80;20.90;;;3.70;99.90;;;;;;5045465;28;20221;-33
2021/12/08 13:22:45;;;;;;;25.70;19.13;;;3.60;99.90;;;;;;5036793;28;20181;-32
2021/12/08 13:28:49;;;;;;;22.67;17.23;;;3.50;99.90;;;;;;5042599;28;20224;-35
2021/12/08 13:31:37;;;;;;;25.63;18.80;;;3.60;99.90;;;;;;5032477;28;20206;-33
2021/12/08 13:34:06;;;;;;;24.63;18.60;;;3.60;99.90;;;;;;5017983;28;20215;-32
2021/12/08 13:36:35;;;;;;;26.67;19.83;;;3.60;99.90;;;;;;5021322;28;20190;-32
2021/12/08 13:39:13;;;;;;;26.57;19.67;;;3.60;99.90;;;;;;5013475;28;20207;-32
2021/12/08 13:41:51;;;;;;;29.37;20.37;;;3.70;99.90;;;;;;5026276;28;20181;-34
2021/12/08 13:44:25;;;;;;;31.07;23.33;;;3.70;99.90;;;;;;5033590;28;20293;-32
2021/12/08 13:46:56;;;;;;;30.50;21.60;;;3.70;99.90;;;;;;5032248;28;20182;-32
2021/12/08 13:49:29;;;;;;;27.70;21.37;;;3.70;99.90;;;;;;5046069;28;20189;-32
2021/12/08 13:52:06;;;;;;;30.10;21.67;;;3.70;99.90;;;;;;5032244;28;20179;-32
2021/12/08 13:54:42;;;;;;;26.77;20.37;;;3.70;99.90;;;;;;5041191;28;20194;-34
2021/12/08 13:57:36;;;;;;;25.53;19.93;;;3.70;99.90;;;;;;5030070;28;20286;-34